UAE4CK EGLL-EDDF
Flight info
| Callsign | UAE4CK |
|---|---|
| Flight time | 1h 0m |
| Altitude | 35000 |
| Route | DET L6 DVR UL9 KONAN UL607 SPI T180 NIVNU T847 IMCOM IMCOM1D |
| Aircraft | A388/J-SADE2E3FGHIJ3J4J5M1RWXY/LB1D1 |
Departure
| Time | 2026-04-15 14:22 |
|---|---|
| Airport | London Heathrow Airport (EGLL) |
Arrival
| Time | 2026-04-15 15:23 |
|---|---|
| Airport | Frankfurt Main Airport (EDDF) |
| Time | Latitude | Longitude | Altitude | Speed | Heading |
|---|---|---|---|---|---|
| 2026-04-15 13:55 | 51.46834 | -0.45445 | 91 ft | 0 kts | 359° |
| 2026-04-15 14:10 | 51.46833 | -0.45445 | 91 ft | 2 kts | 359° |
| 2026-04-15 14:10 | 51.46808 | -0.45445 | 91 ft | 4 kts | 359° |
| 2026-04-15 14:10 | 51.46781 | -0.45444 | 91 ft | 4 kts | 4° |
| 2026-04-15 14:11 | 51.46758 | -0.45455 | 92 ft | 4 kts | 49° |
| 2026-04-15 14:11 | 51.46750 | -0.45486 | 93 ft | 1 kts | 89° |
| 2026-04-15 14:11 | 51.46749 | -0.45524 | 92 ft | 4 kts | 89° |
| 2026-04-15 14:11 | 51.46749 | -0.45545 | 93 ft | 0 kts | 89° |
| 2026-04-15 14:14 | 51.46749 | -0.45517 | 92 ft | 5 kts | 89° |
| 2026-04-15 14:14 | 51.46750 | -0.45446 | 92 ft | 8 kts | 90° |
| 2026-04-15 14:14 | 51.46750 | -0.45344 | 91 ft | 11 kts | 89° |
| 2026-04-15 14:15 | 51.46751 | -0.45205 | 93 ft | 14 kts | 90° |
| 2026-04-15 14:15 | 51.46752 | -0.45034 | 93 ft | 17 kts | 89° |
| 2026-04-15 14:15 | 51.46753 | -0.44831 | 91 ft | 20 kts | 90° |
| 2026-04-15 14:15 | 51.46752 | -0.44599 | 91 ft | 22 kts | 90° |
| 2026-04-15 14:16 | 51.46753 | -0.44361 | 93 ft | 17 kts | 90° |
| 2026-04-15 14:16 | 51.46754 | -0.44173 | 94 ft | 7 kts | 89° |
| 2026-04-15 14:16 | 51.46759 | -0.44086 | 94 ft | 9 kts | 72° |
| 2026-04-15 14:16 | 51.46770 | -0.43976 | 94 ft | 11 kts | 89° |
| 2026-04-15 14:17 | 51.46771 | -0.43847 | 94 ft | 7 kts | 89° |
| 2026-04-15 14:17 | 51.46772 | -0.43775 | 94 ft | 8 kts | 89° |
| 2026-04-15 14:17 | 51.46772 | -0.43671 | 94 ft | 10 kts | 102° |
| 2026-04-15 14:17 | 51.46728 | -0.43613 | 94 ft | 8 kts | 168° |
| 2026-04-15 14:18 | 51.46670 | -0.43605 | 91 ft | 8 kts | 178° |
| 2026-04-15 14:18 | 51.46614 | -0.43603 | 91 ft | 8 kts | 179° |
| 2026-04-15 14:18 | 51.46560 | -0.43601 | 92 ft | 8 kts | 179° |
| 2026-04-15 14:18 | 51.46513 | -0.43610 | 93 ft | 6 kts | 214° |
| 2026-04-15 14:19 | 51.46495 | -0.43646 | 93 ft | 3 kts | 258° |
| 2026-04-15 14:19 | 51.46494 | -0.43663 | 93 ft | 0 kts | 270° |
| 2026-04-15 14:21 | 51.46494 | -0.43664 | 93 ft | 1 kts | 270° |
| 2026-04-15 14:21 | 51.46495 | -0.43765 | 91 ft | 31 kts | 270° |
| 2026-04-15 14:21 | 51.46491 | -0.44530 | 93 ft | 101 kts | 270° |
| 2026-04-15 14:21 | 51.46491 | -0.45895 | 119 ft | 139 kts | 265° |
| 2026-04-15 14:22 | 51.46495 | -0.47426 | 633 ft | 135 kts | 264° |
| 2026-04-15 14:22 | 51.46474 | -0.48955 | 1141 ft | 136 kts | 260° |
| 2026-04-15 14:22 | 51.46443 | -0.50413 | 1784 ft | 127 kts | 258° |
| 2026-04-15 14:22 | 51.46346 | -0.51864 | 2099 ft | 134 kts | 243° |
| 2026-04-15 14:23 | 51.45712 | -0.53013 | 2312 ft | 152 kts | 206° |
| 2026-04-15 14:23 | 51.44626 | -0.53363 | 2656 ft | 170 kts | 189° |
| 2026-04-15 14:23 | 51.43342 | -0.53236 | 3077 ft | 199 kts | 173° |
| 2026-04-15 14:23 | 51.41957 | -0.52316 | 3557 ft | 231 kts | 156° |
| 2026-04-15 14:24 | 51.40595 | -0.50704 | 4176 ft | 254 kts | 146° |
| 2026-04-15 14:24 | 51.39301 | -0.48763 | 5076 ft | 260 kts | 143° |
| 2026-04-15 14:24 | 51.38002 | -0.46687 | 5981 ft | 264 kts | 143° |
| 2026-04-15 14:24 | 51.36685 | -0.44581 | 6856 ft | 268 kts | 143° |
| 2026-04-15 14:25 | 51.35367 | -0.42500 | 7736 ft | 271 kts | 143° |
| 2026-04-15 14:25 | 51.34004 | -0.40375 | 8615 ft | 275 kts | 144° |
| 2026-04-15 14:25 | 51.32624 | -0.38240 | 9490 ft | 278 kts | 144° |
| 2026-04-15 14:25 | 51.31290 | -0.35942 | 10315 ft | 292 kts | 131° |
| 2026-04-15 14:26 | 51.30443 | -0.32802 | 10668 ft | 329 kts | 108° |
| 2026-04-15 14:26 | 51.30371 | -0.28969 | 10897 ft | 363 kts | 86° |
| 2026-04-15 14:26 | 51.30887 | -0.24935 | 11420 ft | 374 kts | 82° |
| 2026-04-15 14:26 | 51.31335 | -0.20828 | 12124 ft | 375 kts | 88° |
| 2026-04-15 14:27 | 51.31561 | -0.16659 | 12819 ft | 378 kts | 93° |
| 2026-04-15 14:27 | 51.31619 | -0.12495 | 13487 ft | 380 kts | 96° |
| 2026-04-15 14:27 | 51.31592 | -0.08246 | 14187 ft | 383 kts | 97° |
| 2026-04-15 14:27 | 51.31531 | -0.03983 | 14884 ft | 384 kts | 97° |
| 2026-04-15 14:28 | 51.31461 | 0.00305 | 15449 ft | 386 kts | 97° |
| 2026-04-15 14:28 | 51.31390 | 0.04606 | 16097 ft | 388 kts | 97° |
| 2026-04-15 14:28 | 51.31317 | 0.08939 | 16662 ft | 392 kts | 98° |
| 2026-04-15 14:28 | 51.31245 | 0.13304 | 17282 ft | 394 kts | 98° |
| 2026-04-15 14:29 | 51.31174 | 0.17709 | 17884 ft | 398 kts | 98° |
| 2026-04-15 14:29 | 51.31099 | 0.22147 | 18418 ft | 401 kts | 98° |
| 2026-04-15 14:29 | 51.31023 | 0.26551 | 18942 ft | 403 kts | 98° |
| 2026-04-15 14:29 | 51.30944 | 0.31044 | 19454 ft | 405 kts | 98° |
| 2026-04-15 14:30 | 51.30862 | 0.35561 | 19947 ft | 408 kts | 99° |
| 2026-04-15 14:30 | 51.30778 | 0.40119 | 20452 ft | 411 kts | 99° |
| 2026-04-15 14:30 | 51.30693 | 0.44692 | 20962 ft | 413 kts | 99° |
| 2026-04-15 14:30 | 51.30604 | 0.49309 | 21412 ft | 416 kts | 99° |
| 2026-04-15 14:31 | 51.30514 | 0.53948 | 21962 ft | 418 kts | 99° |
| 2026-04-15 14:31 | 51.30341 | 0.58587 | 22472 ft | 416 kts | 105° |
| 2026-04-15 14:31 | 51.29803 | 0.63107 | 22971 ft | 411 kts | 113° |
| 2026-04-15 14:31 | 51.28989 | 0.67477 | 23455 ft | 412 kts | 115° |
| 2026-04-15 14:32 | 51.28173 | 0.71874 | 23908 ft | 414 kts | 114° |
| 2026-04-15 14:32 | 51.27369 | 0.76263 | 24337 ft | 417 kts | 114° |
| 2026-04-15 14:32 | 51.26555 | 0.80715 | 24781 ft | 419 kts | 115° |
| 2026-04-15 14:32 | 51.25732 | 0.85199 | 25219 ft | 422 kts | 115° |
| 2026-04-15 14:33 | 51.24897 | 0.89728 | 25690 ft | 425 kts | 115° |
| 2026-04-15 14:33 | 51.24058 | 0.94264 | 26223 ft | 427 kts | 115° |
| 2026-04-15 14:33 | 51.23209 | 0.98832 | 26521 ft | 433 kts | 114° |
| 2026-04-15 14:33 | 51.22344 | 1.03480 | 26947 ft | 437 kts | 114° |
| 2026-04-15 14:34 | 51.21489 | 1.08078 | 27438 ft | 439 kts | 114° |
| 2026-04-15 14:34 | 51.20611 | 1.12780 | 27895 ft | 443 kts | 114° |
| 2026-04-15 14:34 | 51.19725 | 1.17509 | 28395 ft | 446 kts | 114° |
| 2026-04-15 14:34 | 51.18828 | 1.22286 | 28840 ft | 450 kts | 114° |
| 2026-04-15 14:35 | 51.17925 | 1.27079 | 29353 ft | 453 kts | 114° |
| 2026-04-15 14:35 | 51.17013 | 1.31914 | 29823 ft | 456 kts | 114° |
| 2026-04-15 14:35 | 51.16289 | 1.36835 | 30266 ft | 468 kts | 107° |
| 2026-04-15 14:35 | 51.15940 | 1.42044 | 30703 ft | 476 kts | 101° |
| 2026-04-15 14:36 | 51.15712 | 1.47327 | 31090 ft | 480 kts | 101° |
| 2026-04-15 14:36 | 51.15465 | 1.52644 | 31527 ft | 482 kts | 101° |
| 2026-04-15 14:36 | 51.15207 | 1.57978 | 31952 ft | 485 kts | 101° |
| 2026-04-15 14:36 | 51.14943 | 1.63347 | 32360 ft | 488 kts | 101° |
| 2026-04-15 14:37 | 51.14674 | 1.68749 | 32789 ft | 490 kts | 101° |
| 2026-04-15 14:37 | 51.14402 | 1.74177 | 33202 ft | 493 kts | 101° |
| 2026-04-15 14:37 | 51.14126 | 1.79638 | 33620 ft | 496 kts | 101° |
| 2026-04-15 14:37 | 51.13846 | 1.85133 | 34033 ft | 499 kts | 101° |
| 2026-04-15 14:38 | 51.13562 | 1.90657 | 34341 ft | 502 kts | 101° |
| 2026-04-15 14:38 | 51.13272 | 1.96231 | 34564 ft | 508 kts | 101° |
| 2026-04-15 14:38 | 51.12977 | 2.01858 | 34950 ft | 510 kts | 101° |
| 2026-04-15 14:38 | 51.12678 | 2.07523 | 35106 ft | 517 kts | 101° |
| 2026-04-15 14:39 | 51.12381 | 2.13121 | 35101 ft | 511 kts | 101° |
| 2026-04-15 14:39 | 51.11773 | 2.24411 | 35100 ft | 513 kts | 101° |
| 2026-04-15 14:40 | 51.11149 | 2.35724 | 35104 ft | 513 kts | 101° |
| 2026-04-15 14:40 | 51.10515 | 2.47032 | 35105 ft | 513 kts | 101° |
| 2026-04-15 14:41 | 51.09980 | 2.56433 | 35100 ft | 512 kts | 101° |
| 2026-04-15 14:41 | 51.08732 | 2.69362 | 35099 ft | 503 kts | 111° |
| 2026-04-15 14:42 | 51.07096 | 2.78276 | 35098 ft | 501 kts | 112° |
| 2026-04-15 14:42 | 51.05161 | 2.88944 | 35103 ft | 502 kts | 112° |
| 2026-04-15 14:43 | 51.03223 | 2.99575 | 35114 ft | 504 kts | 112° |
| 2026-04-15 14:43 | 51.01258 | 3.10271 | 35122 ft | 505 kts | 112° |
| 2026-04-15 14:44 | 50.99276 | 3.20990 | 35126 ft | 506 kts | 112° |
| 2026-04-15 14:44 | 50.97283 | 3.31704 | 35098 ft | 506 kts | 112° |
| 2026-04-15 14:45 | 50.95276 | 3.42434 | 35110 ft | 507 kts | 111° |
| 2026-04-15 14:45 | 50.93272 | 3.53086 | 35126 ft | 508 kts | 112° |
| 2026-04-15 14:46 | 50.91241 | 3.63820 | 35138 ft | 508 kts | 112° |
| 2026-04-15 14:46 | 50.89185 | 3.74541 | 35144 ft | 508 kts | 112° |
| 2026-04-15 14:47 | 50.87107 | 3.85261 | 35126 ft | 509 kts | 111° |
| 2026-04-15 14:47 | 50.85022 | 3.95982 | 35139 ft | 510 kts | 111° |
| 2026-04-15 14:48 | 50.82922 | 4.06720 | 35145 ft | 510 kts | 112° |
| 2026-04-15 14:48 | 50.80825 | 4.17382 | 35144 ft | 510 kts | 112° |
| 2026-04-15 14:49 | 50.78707 | 4.28095 | 35134 ft | 510 kts | 111° |
| 2026-04-15 14:49 | 50.76578 | 4.38802 | 35134 ft | 511 kts | 112° |
| 2026-04-15 14:50 | 50.74437 | 4.49508 | 35134 ft | 511 kts | 112° |
| 2026-04-15 14:50 | 50.72289 | 4.60194 | 35139 ft | 511 kts | 112° |
| 2026-04-15 14:51 | 50.70205 | 4.70850 | 35135 ft | 511 kts | 110° |
| 2026-04-15 14:51 | 50.68135 | 4.81588 | 35140 ft | 512 kts | 111° |
| 2026-04-15 14:52 | 50.66040 | 4.92336 | 35154 ft | 513 kts | 111° |
| 2026-04-15 14:52 | 50.63860 | 5.03041 | 35155 ft | 513 kts | 112° |
| 2026-04-15 14:53 | 50.61642 | 5.13730 | 35150 ft | 513 kts | 111° |
| 2026-04-15 14:53 | 50.59425 | 5.24414 | 35163 ft | 514 kts | 111° |
| 2026-04-15 14:54 | 50.57197 | 5.35120 | 35166 ft | 515 kts | 111° |
| 2026-04-15 14:54 | 50.54956 | 5.45824 | 35176 ft | 515 kts | 111° |
| 2026-04-15 14:55 | 50.52721 | 5.56448 | 35185 ft | 515 kts | 111° |
| 2026-04-15 14:55 | 50.50497 | 5.67167 | 35171 ft | 515 kts | 109° |
| 2026-04-15 14:56 | 50.48515 | 5.77986 | 35083 ft | 513 kts | 108° |
| 2026-04-15 14:56 | 50.47534 | 5.83353 | 34842 ft | 509 kts | 109° |
| 2026-04-15 14:56 | 50.46548 | 5.88669 | 34606 ft | 507 kts | 109° |
| 2026-04-15 14:56 | 50.45554 | 5.93967 | 34369 ft | 505 kts | 109° |
| 2026-04-15 14:57 | 50.44556 | 5.99251 | 34122 ft | 504 kts | 109° |
| 2026-04-15 14:57 | 50.43559 | 6.04502 | 33776 ft | 500 kts | 108° |
| 2026-04-15 14:57 | 50.42566 | 6.09724 | 33164 ft | 498 kts | 108° |
| 2026-04-15 14:57 | 50.41577 | 6.14907 | 32582 ft | 494 kts | 108° |
| 2026-04-15 14:58 | 50.40594 | 6.20045 | 31996 ft | 489 kts | 108° |
| 2026-04-15 14:58 | 50.39620 | 6.25130 | 31412 ft | 485 kts | 108° |
| 2026-04-15 14:58 | 50.38651 | 6.30165 | 30832 ft | 480 kts | 108° |
| 2026-04-15 14:58 | 50.37688 | 6.35159 | 30243 ft | 476 kts | 108° |
| 2026-04-15 14:59 | 50.36764 | 6.40115 | 29615 ft | 471 kts | 105° |
| 2026-04-15 14:59 | 50.36091 | 6.45107 | 28904 ft | 467 kts | 105° |
| 2026-04-15 14:59 | 50.35181 | 6.50005 | 28053 ft | 467 kts | 108° |
| 2026-04-15 14:59 | 50.34195 | 6.54818 | 27536 ft | 460 kts | 109° |
| 2026-04-15 15:00 | 50.33239 | 6.59470 | 27218 ft | 449 kts | 109° |
| 2026-04-15 15:00 | 50.32297 | 6.64117 | 26517 ft | 447 kts | 108° |
| 2026-04-15 15:00 | 50.31360 | 6.68790 | 25521 ft | 453 kts | 108° |
| 2026-04-15 15:00 | 50.30417 | 6.73528 | 24629 ft | 456 kts | 108° |
| 2026-04-15 15:01 | 50.29477 | 6.78259 | 23991 ft | 452 kts | 108° |
| 2026-04-15 15:01 | 50.28559 | 6.82878 | 23134 ft | 447 kts | 108° |
| 2026-04-15 15:01 | 50.27642 | 6.87476 | 22253 ft | 440 kts | 108° |
| 2026-04-15 15:01 | 50.26732 | 6.92027 | 21375 ft | 434 kts | 108° |
| 2026-04-15 15:02 | 50.25834 | 6.96506 | 20491 ft | 431 kts | 109° |
| 2026-04-15 15:02 | 50.24941 | 7.00949 | 19962 ft | 424 kts | 109° |
| 2026-04-15 15:02 | 50.24064 | 7.05310 | 19449 ft | 416 kts | 109° |
| 2026-04-15 15:02 | 50.23303 | 7.09080 | 18976 ft | 411 kts | 109° |
| 2026-04-15 15:03 | 50.22458 | 7.13260 | 18433 ft | 406 kts | 109° |
| 2026-04-15 15:03 | 50.21609 | 7.17445 | 17835 ft | 400 kts | 109° |
| 2026-04-15 15:03 | 50.20776 | 7.21544 | 17328 ft | 393 kts | 109° |
| 2026-04-15 15:03 | 50.19955 | 7.25583 | 16800 ft | 387 kts | 109° |
| 2026-04-15 15:04 | 50.19141 | 7.29573 | 16270 ft | 382 kts | 109° |
| 2026-04-15 15:04 | 50.18337 | 7.33506 | 15771 ft | 376 kts | 109° |
| 2026-04-15 15:04 | 50.17555 | 7.37326 | 15258 ft | 372 kts | 109° |
| 2026-04-15 15:04 | 50.16769 | 7.41160 | 14766 ft | 368 kts | 109° |
| 2026-04-15 15:05 | 50.15991 | 7.44941 | 14260 ft | 364 kts | 109° |
| 2026-04-15 15:05 | 50.15220 | 7.48688 | 13763 ft | 361 kts | 109° |
| 2026-04-15 15:05 | 50.14454 | 7.52396 | 13260 ft | 356 kts | 109° |
| 2026-04-15 15:05 | 50.13698 | 7.56051 | 12790 ft | 351 kts | 109° |
| 2026-04-15 15:06 | 50.12222 | 7.63175 | 11842 ft | 343 kts | 109° |
| 2026-04-15 15:06 | 50.11458 | 7.66676 | 11398 ft | 340 kts | 114° |
| 2026-04-15 15:06 | 50.10402 | 7.69994 | 11231 ft | 344 kts | 122° |
| 2026-04-15 15:07 | 50.09051 | 7.73092 | 11190 ft | 344 kts | 127° |
| 2026-04-15 15:07 | 50.07673 | 7.76148 | 11190 ft | 344 kts | 126° |
| 2026-04-15 15:07 | 50.06312 | 7.79220 | 11199 ft | 345 kts | 126° |
| 2026-04-15 15:07 | 50.04950 | 7.82298 | 11190 ft | 344 kts | 126° |
| 2026-04-15 15:08 | 50.03606 | 7.85329 | 11204 ft | 344 kts | 126° |
| 2026-04-15 15:08 | 50.02242 | 7.88393 | 11205 ft | 345 kts | 126° |
| 2026-04-15 15:08 | 50.00883 | 7.91484 | 11193 ft | 345 kts | 122° |
| 2026-04-15 15:08 | 50.00031 | 7.94970 | 11196 ft | 348 kts | 100° |
| 2026-04-15 15:09 | 50.00035 | 7.98687 | 11065 ft | 350 kts | 79° |
| 2026-04-15 15:09 | 50.00784 | 8.02273 | 10945 ft | 349 kts | 68° |
| 2026-04-15 15:09 | 50.01742 | 8.05740 | 10803 ft | 348 kts | 66° |
| 2026-04-15 15:09 | 50.02692 | 8.09157 | 10738 ft | 339 kts | 67° |
| 2026-04-15 15:10 | 50.03569 | 8.12470 | 10623 ft | 327 kts | 68° |
| 2026-04-15 15:10 | 50.04386 | 8.15695 | 10506 ft | 314 kts | 69° |
| 2026-04-15 15:10 | 50.05154 | 8.18808 | 10338 ft | 304 kts | 69° |
| 2026-04-15 15:10 | 50.05899 | 8.21871 | 10246 ft | 301 kts | 69° |
| 2026-04-15 15:11 | 50.06637 | 8.24922 | 10111 ft | 300 kts | 69° |
| 2026-04-15 15:11 | 50.07375 | 8.27974 | 10015 ft | 301 kts | 70° |
| 2026-04-15 15:11 | 50.08111 | 8.31022 | 9897 ft | 300 kts | 70° |
| 2026-04-15 15:11 | 50.08844 | 8.34058 | 9782 ft | 299 kts | 70° |
| 2026-04-15 15:12 | 50.09575 | 8.37092 | 9691 ft | 299 kts | 70° |
| 2026-04-15 15:12 | 50.10303 | 8.40117 | 9568 ft | 298 kts | 70° |
| 2026-04-15 15:12 | 50.11028 | 8.43134 | 9468 ft | 297 kts | 70° |
| 2026-04-15 15:12 | 50.11740 | 8.46105 | 9307 ft | 296 kts | 70° |
| 2026-04-15 15:13 | 50.12467 | 8.49139 | 8925 ft | 298 kts | 70° |
| 2026-04-15 15:13 | 50.13189 | 8.52158 | 8827 ft | 293 kts | 70° |
| 2026-04-15 15:13 | 50.13899 | 8.55133 | 8771 ft | 293 kts | 70° |
| 2026-04-15 15:13 | 50.14603 | 8.58082 | 8658 ft | 293 kts | 70° |
| 2026-04-15 15:14 | 50.15310 | 8.61052 | 8595 ft | 292 kts | 70° |
| 2026-04-15 15:14 | 50.16017 | 8.64026 | 8486 ft | 291 kts | 70° |
| 2026-04-15 15:14 | 50.16719 | 8.66981 | 8374 ft | 290 kts | 70° |
| 2026-04-15 15:14 | 50.17423 | 8.69948 | 8127 ft | 290 kts | 70° |
| 2026-04-15 15:15 | 50.18102 | 8.72805 | 7549 ft | 283 kts | 70° |
| 2026-04-15 15:15 | 50.18785 | 8.75687 | 6888 ft | 282 kts | 71° |
| 2026-04-15 15:15 | 50.19461 | 8.78544 | 6342 ft | 278 kts | 71° |
| 2026-04-15 15:15 | 50.20094 | 8.81318 | 6075 ft | 260 kts | 78° |
| 2026-04-15 15:16 | 50.20118 | 8.84005 | 5852 ft | 240 kts | 107° |
| 2026-04-15 15:16 | 50.19400 | 8.86256 | 5485 ft | 233 kts | 135° |
| 2026-04-15 15:16 | 50.18171 | 8.87876 | 5285 ft | 232 kts | 142° |
| 2026-04-15 15:16 | 50.16912 | 8.89431 | 5026 ft | 232 kts | 142° |
| 2026-04-15 15:17 | 50.15547 | 8.90772 | 4752 ft | 231 kts | 162° |
| 2026-04-15 15:17 | 50.13960 | 8.90894 | 4527 ft | 230 kts | 194° |
| 2026-04-15 15:17 | 50.12605 | 8.89700 | 4373 ft | 222 kts | 222° |
| 2026-04-15 15:17 | 50.11532 | 8.88034 | 4249 ft | 213 kts | 227° |
| 2026-04-15 15:18 | 50.10694 | 8.86170 | 4100 ft | 206 kts | 240° |
| 2026-04-15 15:18 | 50.10112 | 8.84218 | 3857 ft | 195 kts | 246° |
| 2026-04-15 15:18 | 50.09639 | 8.82308 | 3577 ft | 189 kts | 248° |
| 2026-04-15 15:18 | 50.09185 | 8.80402 | 3314 ft | 188 kts | 248° |
| 2026-04-15 15:19 | 50.08732 | 8.78501 | 3064 ft | 186 kts | 248° |
| 2026-04-15 15:19 | 50.08282 | 8.76608 | 2807 ft | 186 kts | 248° |
| 2026-04-15 15:19 | 50.07837 | 8.74734 | 2543 ft | 177 kts | 248° |
| 2026-04-15 15:19 | 50.07427 | 8.73016 | 2337 ft | 166 kts | 248° |
| 2026-04-15 15:20 | 50.07035 | 8.71368 | 2110 ft | 163 kts | 248° |
| 2026-04-15 15:20 | 50.06652 | 8.69760 | 1892 ft | 151 kts | 249° |
| 2026-04-15 15:20 | 50.06299 | 8.68279 | 1707 ft | 143 kts | 247° |
| 2026-04-15 15:20 | 50.05955 | 8.66831 | 1502 ft | 142 kts | 248° |
| 2026-04-15 15:21 | 50.05619 | 8.65391 | 1315 ft | 141 kts | 248° |
| 2026-04-15 15:21 | 50.05276 | 8.63957 | 1116 ft | 141 kts | 248° |
| 2026-04-15 15:21 | 50.04921 | 8.62524 | 938 ft | 142 kts | 248° |
| 2026-04-15 15:21 | 50.04585 | 8.61087 | 746 ft | 141 kts | 248° |
| 2026-04-15 15:22 | 50.04252 | 8.59671 | 557 ft | 140 kts | 248° |
| 2026-04-15 15:22 | 50.03912 | 8.58245 | 380 ft | 138 kts | 246° |
| 2026-04-15 15:22 | 50.03619 | 8.57033 | 364 ft | 99 kts | 250° |
| 2026-04-15 15:22 | 50.03416 | 8.56187 | 360 ft | 67 kts | 249° |
| 2026-04-15 15:23 | 50.03320 | 8.55746 | 356 ft | 36 kts | 259° |
| 2026-04-15 15:23 | 50.03323 | 8.55402 | 355 ft | 21 kts | 275° |
| 2026-04-15 15:23 | 50.03351 | 8.55206 | 358 ft | 17 kts | 308° |
| 2026-04-15 15:23 | 50.03429 | 8.55225 | 355 ft | 14 kts | 63° |
| 2026-04-15 15:24 | 50.03470 | 8.55378 | 356 ft | 17 kts | 70° |
| 2026-04-15 15:24 | 50.03512 | 8.55558 | 358 ft | 19 kts | 71° |
| 2026-04-15 15:24 | 50.03556 | 8.55753 | 355 ft | 20 kts | 70° |
| 2026-04-15 15:24 | 50.03605 | 8.55958 | 360 ft | 20 kts | 70° |
| 2026-04-15 15:25 | 50.03657 | 8.56166 | 361 ft | 21 kts | 68° |
| 2026-04-15 15:25 | 50.03709 | 8.56386 | 364 ft | 22 kts | 70° |
| 2026-04-15 15:25 | 50.03765 | 8.56621 | 361 ft | 24 kts | 69° |
| 2026-04-15 15:25 | 50.03822 | 8.56863 | 367 ft | 24 kts | 69° |
| 2026-04-15 15:26 | 50.03861 | 8.57025 | 364 ft | 24 kts | 69° |
| 2026-04-15 15:26 | 50.03936 | 8.57332 | 374 ft | 22 kts | 69° |
| 2026-04-15 15:26 | 50.03972 | 8.57480 | 374 ft | 22 kts | 69° |
| 2026-04-15 15:26 | 50.04027 | 8.57708 | 374 ft | 23 kts | 69° |
| 2026-04-15 15:27 | 50.04104 | 8.58026 | 376 ft | 24 kts | 69° |
| 2026-04-15 15:27 | 50.04143 | 8.58190 | 376 ft | 25 kts | 69° |
| 2026-04-15 15:27 | 50.04205 | 8.58443 | 375 ft | 25 kts | 69° |
| 2026-04-15 15:27 | 50.04267 | 8.58702 | 376 ft | 26 kts | 69° |
| 2026-04-15 15:28 | 50.04328 | 8.58953 | 380 ft | 24 kts | 69° |
| 2026-04-15 15:28 | 50.04387 | 8.59200 | 381 ft | 25 kts | 70° |
| 2026-04-15 15:28 | 50.04433 | 8.59392 | 381 ft | 11 kts | 70° |
| 2026-04-15 15:28 | 50.04467 | 8.59461 | 380 ft | 8 kts | 23° |
| 2026-04-15 15:29 | 50.04522 | 8.59469 | 379 ft | 9 kts | 358° |
| 2026-04-15 15:29 | 50.04595 | 8.59465 | 378 ft | 11 kts | 358° |
| 2026-04-15 15:29 | 50.04674 | 8.59454 | 377 ft | 11 kts | 347° |
| 2026-04-15 15:29 | 50.04749 | 8.59414 | 377 ft | 11 kts | 340° |
| 2026-04-15 15:30 | 50.04827 | 8.59369 | 379 ft | 13 kts | 343° |
| 2026-04-15 15:30 | 50.04922 | 8.59370 | 376 ft | 14 kts | 1° |
| 2026-04-15 15:30 | 50.05021 | 8.59331 | 369 ft | 15 kts | 341° |
| 2026-04-15 15:30 | 50.05078 | 8.59238 | 370 ft | 13 kts | 284° |
| 2026-04-15 15:31 | 50.05063 | 8.59127 | 367 ft | 9 kts | 250° |
| 2026-04-15 15:31 | 50.05044 | 8.59042 | 370 ft | 3 kts | 269° |
| 2026-04-15 15:31 | 50.05048 | 8.59024 | 372 ft | 2 kts | 311° |
| 2026-04-15 15:31 | 50.05062 | 8.59008 | 371 ft | 4 kts | 334° |
| 2026-04-15 15:32 | 50.05094 | 8.58989 | 368 ft | 6 kts | 339° |
| 2026-04-15 15:32 | 50.05115 | 8.58977 | 370 ft | 0 kts | 340° |
| 2026-04-15 15:32 | 50.05118 | 8.58975 | 370 ft | 1 kts | 340° |